Redoak, Ohio
Current Conditions -  °F | °C
As of 3:15 AM on Monday 24 Nov 2014 (Local Time) from KFGX Reporting Station
Overcast Overcast  
Wind Chill: 58°   Ceiling: 1500
Heat Index: 58°   Visibility: 10mi
Dew Point: 56°   Wind: 20mph
Humidity: 91%   Direction: 220°SW
Pressure: 29.43"   Gusts: 26mph
Location:  38.776°N, 83.7985°W
Report Text: KFGX 240815Z AUTO 22017G23KT 10SM BKN015 OVC022 15/13 A2943 RMK AO2 T01460132
Loading
Personal Weather Stations






























Interactive Weather Map New forecast layout! Learn more

10-Day Weather Forecast

Advertisements
Track Severe Weather on mobile